sensor_id;sensor_type;location;lat;lon;timestamp;temperature;humidity
1165;DHT22;571;50.930;6.926;2022-07-29T04:02:21;19.80;81.70
1165;DHT22;571;50.930;6.926;2022-07-29T04:04:49;19.80;82.10
1165;DHT22;571;50.930;6.926;2022-07-29T04:07:16;19.90;83.20
1165;DHT22;571;50.930;6.926;2022-07-29T04:09:43;19.70;83.00
1165;DHT22;571;50.930;6.926;2022-07-29T04:12:10;19.70;84.00
1165;DHT22;571;50.930;6.926;2022-07-29T04:14:37;19.80;81.30
1165;DHT22;571;50.930;6.926;2022-07-29T04:17:04;19.90;80.50
1165;DHT22;571;50.930;6.926;2022-07-29T04:19:32;20.00;80.60
1165;DHT22;571;50.930;6.926;2022-07-29T04:22:00;19.90;80.90
1165;DHT22;571;50.930;6.926;2022-07-29T04:24:27;19.80;81.60
1165;DHT22;571;50.930;6.926;2022-07-29T04:26:54;19.70;82.60
1165;DHT22;571;50.930;6.926;2022-07-29T04:29:21;19.70;82.30
1165;DHT22;571;50.930;6.926;2022-07-29T04:31:47;19.70;83.10
1165;DHT22;571;50.930;6.926;2022-07-29T04:34:14;19.80;80.50
1165;DHT22;571;50.930;6.926;2022-07-29T04:36:42;19.80;82.00
1165;DHT22;571;50.930;6.926;2022-07-29T04:39:09;19.90;80.10
1165;DHT22;571;50.930;6.926;2022-07-29T04:41:36;19.80;81.50
1165;DHT22;571;50.930;6.926;2022-07-29T04:44:03;19.70;81.20
1165;DHT22;571;50.930;6.926;2022-07-29T04:46:31;19.80;80.20
1165;DHT22;571;50.930;6.926;2022-07-29T04:48:57;19.80;81.90
1165;DHT22;571;50.930;6.926;2022-07-29T04:51:24;19.60;83.00
1165;DHT22;571;50.930;6.926;2022-07-29T04:53:52;19.70;82.00
1165;DHT22;571;50.930;6.926;2022-07-29T04:56:19;19.90;80.20
1165;DHT22;571;50.930;6.926;2022-07-29T04:58:46;20.00;79.60
1165;DHT22;571;50.930;6.926;2022-07-29T05:01:13;20.00;79.60
1165;DHT22;571;50.930;6.926;2022-07-29T05:03:40;19.90;80.10
1165;DHT22;571;50.930;6.926;2022-07-29T05:06:07;19.90;80.10
1165;DHT22;571;50.930;6.926;2022-07-29T05:08:33;19.90;79.40
1165;DHT22;571;50.930;6.926;2022-07-29T05:11:02;20.00;78.90
1165;DHT22;571;50.930;6.926;2022-07-29T05:13:28;20.10;78.80
1165;DHT22;571;50.930;6.926;2022-07-29T05:15:55;20.10;78.40
1165;DHT22;571;50.930;6.926;2022-07-29T05:18:23;20.10;79.20
1165;DHT22;571;50.930;6.926;2022-07-29T05:20:50;20.10;79.90
1165;DHT22;571;50.930;6.926;2022-07-29T05:23:17;20.00;79.50
1165;DHT22;571;50.930;6.926;2022-07-29T05:25:43;20.00;79.00
1165;DHT22;571;50.930;6.926;2022-07-29T05:28:13;20.10;78.80
1165;DHT22;571;50.930;6.926;2022-07-29T05:30:40;20.10;79.10
1165;DHT22;571;50.930;6.926;2022-07-29T05:33:07;20.10;78.90
1165;DHT22;571;50.930;6.926;2022-07-29T05:35:34;20.10;78.90
1165;DHT22;571;50.930;6.926;2022-07-29T05:38:02;20.10;79.50
1165;DHT22;571;50.930;6.926;2022-07-29T05:40:29;20.10;80.30
1165;DHT22;571;50.930;6.926;2022-07-29T05:42:56;20.10;80.00
1165;DHT22;571;50.930;6.926;2022-07-29T05:45:24;20.00;80.30
1165;DHT22;571;50.930;6.926;2022-07-29T05:47:50;20.20;78.40
1165;DHT22;571;50.930;6.926;2022-07-29T05:50:17;20.30;78.50
1165;DHT22;571;50.930;6.926;2022-07-29T05:52:44;20.30;79.70
1165;DHT22;571;50.930;6.926;2022-07-29T05:55:11;20.30;78.70
1165;DHT22;571;50.930;6.926;2022-07-29T05:57:38;20.30;79.60
1165;DHT22;571;50.930;6.926;2022-07-29T06:00:06;20.20;80.60
1165;DHT22;571;50.930;6.926;2022-07-29T06:02:34;20.30;78.80
1165;DHT22;571;50.930;6.926;2022-07-29T06:05:01;20.30;79.90
1165;DHT22;571;50.930;6.926;2022-07-29T06:07:28;20.30;82.00
1165;DHT22;571;50.930;6.926;2022-07-29T06:09:54;20.50;78.90
1165;DHT22;571;50.930;6.926;2022-07-29T06:12:21;20.50;78.00
1165;DHT22;571;50.930;6.926;2022-07-29T06:14:48;20.40;79.10
1165;DHT22;571;50.930;6.926;2022-07-29T06:17:16;20.40;79.60
1165;DHT22;571;50.930;6.926;2022-07-29T06:19:44;20.50;77.70
1165;DHT22;571;50.930;6.926;2022-07-29T06:22:10;20.80;77.10
1165;DHT22;571;50.930;6.926;2022-07-29T06:24:37;20.80;76.90
1165;DHT22;571;50.930;6.926;2022-07-29T06:27:07;20.90;76.00
1165;DHT22;571;50.930;6.926;2022-07-29T06:29:35;20.80;76.80
1165;DHT22;571;50.930;6.926;2022-07-29T06:32:01;20.80;77.10
1165;DHT22;571;50.930;6.926;2022-07-29T06:34:28;20.70;79.00
1165;DHT22;571;50.930;6.926;2022-07-29T06:36:56;20.50;79.20
1165;DHT22;571;50.930;6.926;2022-07-29T06:39:23;20.60;79.50
1165;DHT22;571;50.930;6.926;2022-07-29T06:41:50;20.40;80.40
1165;DHT22;571;50.930;6.926;2022-07-29T06:44:17;20.30;80.30
1165;DHT22;571;50.930;6.926;2022-07-29T06:46:44;20.50;79.60
1165;DHT22;571;50.930;6.926;2022-07-29T06:49:12;20.40;81.50
1165;DHT22;571;50.930;6.926;2022-07-29T06:51:39;20.40;81.60
1165;DHT22;571;50.930;6.926;2022-07-29T06:54:08;20.40;80.60
1165;DHT22;571;50.930;6.926;2022-07-29T06:56:35;20.50;79.80
1165;DHT22;571;50.930;6.926;2022-07-29T06:59:02;20.60;79.90
1165;DHT22;571;50.930;6.926;2022-07-29T07:01:29;20.60;80.40
1165;DHT22;571;50.930;6.926;2022-07-29T07:03:56;20.80;82.20
1165;DHT22;571;50.930;6.926;2022-07-29T07:06:23;20.50;89.00
1165;DHT22;571;50.930;6.926;2022-07-29T07:08:49;20.20;92.40
1165;DHT22;571;50.930;6.926;2022-07-29T07:11:17;20.10;93.10
1165;DHT22;571;50.930;6.926;2022-07-29T07:13:44;19.90;94.50
1165;DHT22;571;50.930;6.926;2022-07-29T07:16:11;19.90;93.80
1165;DHT22;571;50.930;6.926;2022-07-29T07:18:38;19.80;95.00
1165;DHT22;571;50.930;6.926;2022-07-29T07:21:04;19.70;94.90
1165;DHT22;571;50.930;6.926;2022-07-29T07:23:31;19.80;95.40
1165;DHT22;571;50.930;6.926;2022-07-29T07:25:58;19.90;93.90
1165;DHT22;571;50.930;6.926;2022-07-29T07:28:26;20.40;93.70
1165;DHT22;571;50.930;6.926;2022-07-29T07:30:53;20.40;93.10
1165;DHT22;571;50.930;6.926;2022-07-29T07:33:19;20.40;93.20
1165;DHT22;571;50.930;6.926;2022-07-29T07:35:46;20.30;93.50
1165;DHT22;571;50.930;6.926;2022-07-29T07:38:13;20.20;95.00
1165;DHT22;571;50.930;6.926;2022-07-29T07:40:40;20.20;96.00
1165;DHT22;571;50.930;6.926;2022-07-29T07:43:07;20.30;94.20
1165;DHT22;571;50.930;6.926;2022-07-29T07:45:35;20.30;93.80
1165;DHT22;571;50.930;6.926;2022-07-29T07:48:03;20.50;93.30
1165;DHT22;571;50.930;6.926;2022-07-29T07:50:30;20.50;93.90
1165;DHT22;571;50.930;6.926;2022-07-29T07:52:56;20.40;94.40
1165;DHT22;571;50.930;6.926;2022-07-29T07:55:24;20.40;94.00
1165;DHT22;571;50.930;6.926;2022-07-29T07:57:51;20.50;93.50
1165;DHT22;571;50.930;6.926;2022-07-29T08:00:17;20.60;93.30
1165;DHT22;571;50.930;6.926;2022-07-29T08:02:46;20.70;93.10
1165;DHT22;571;50.930;6.926;2022-07-29T08:05:13;20.80;92.90
1165;DHT22;571;50.930;6.926;2022-07-29T08:07:43;20.70;92.60
1165;DHT22;571;50.930;6.926;2022-07-29T08:10:10;20.40;94.40
1165;DHT22;571;50.930;6.926;2022-07-29T08:12:37;20.20;95.00
1165;DHT22;571;50.930;6.926;2022-07-29T08:15:04;20.20;95.30
1165;DHT22;571;50.930;6.926;2022-07-29T08:17:33;20.30;94.90
1165;DHT22;571;50.930;6.926;2022-07-29T08:20:01;20.20;95.50
1165;DHT22;571;50.930;6.926;2022-07-29T08:22:28;20.20;95.80
1165;DHT22;571;50.930;6.926;2022-07-29T08:24:54;20.10;95.90
1165;DHT22;571;50.930;6.926;2022-07-29T08:27:22;20.00;96.60
1165;DHT22;571;50.930;6.926;2022-07-29T08:29:48;20.10;96.50
1165;DHT22;571;50.930;6.926;2022-07-29T08:32:15;20.10;96.30
1165;DHT22;571;50.930;6.926;2022-07-29T08:34:42;20.10;96.80
1165;DHT22;571;50.930;6.926;2022-07-29T08:37:12;20.00;97.50
1165;DHT22;571;50.930;6.926;2022-07-29T08:39:39;20.10;98.00
1165;DHT22;571;50.930;6.926;2022-07-29T08:42:06;20.00;97.40
1165;DHT22;571;50.930;6.926;2022-07-29T08:44:33;20.10;97.10
1165;DHT22;571;50.930;6.926;2022-07-29T08:47:01;20.30;95.70
1165;DHT22;571;50.930;6.926;2022-07-29T08:49:27;20.50;94.70
1165;DHT22;571;50.930;6.926;2022-07-29T08:51:55;20.90;93.50
1165;DHT22;571;50.930;6.926;2022-07-29T08:54:24;20.90;93.20
1165;DHT22;571;50.930;6.926;2022-07-29T08:56:51;21.00;93.50
1165;DHT22;571;50.930;6.926;2022-07-29T08:59:20;20.80;94.90
1165;DHT22;571;50.930;6.926;2022-07-29T09:01:48;20.90;95.30
1165;DHT22;571;50.930;6.926;2022-07-29T09:04:15;21.00;94.70
1165;DHT22;571;50.930;6.926;2022-07-29T09:06:44;21.20;94.80
1165;DHT22;571;50.930;6.926;2022-07-29T09:09:12;21.10;94.50
1165;DHT22;571;50.930;6.926;2022-07-29T09:11:41;21.10;94.70
1165;DHT22;571;50.930;6.926;2022-07-29T09:14:11;21.10;94.40
1165;DHT22;571;50.930;6.926;2022-07-29T09:16:46;20.90;94.30
1165;DHT22;571;50.930;6.926;2022-07-29T09:19:20;21.00;94.50
1165;DHT22;571;50.930;6.926;2022-07-29T09:21:47;21.10;93.90
1165;DHT22;571;50.930;6.926;2022-07-29T09:24:41;21.20;93.80
1165;DHT22;571;50.930;6.926;2022-07-29T09:27:17;21.20;94.00
1165;DHT22;571;50.930;6.926;2022-07-29T09:29:45;21.30;93.60
1165;DHT22;571;50.930;6.926;2022-07-29T09:32:12;21.20;93.90
1165;DHT22;571;50.930;6.926;2022-07-29T09:34:39;21.30;93.70
1165;DHT22;571;50.930;6.926;2022-07-29T09:37:05;21.50;93.80
1165;DHT22;571;50.930;6.926;2022-07-29T09:39:34;21.60;94.10
1165;DHT22;571;50.930;6.926;2022-07-29T09:42:03;21.80;93.70
1165;DHT22;571;50.930;6.926;2022-07-29T09:44:46;21.70;93.40
1165;DHT22;571;50.930;6.926;2022-07-29T09:47:14;22.00;92.10
1165;DHT22;571;50.930;6.926;2022-07-29T09:49:52;22.00;94.40
1165;DHT22;571;50.930;6.926;2022-07-29T09:52:20;22.10;92.50
1165;DHT22;571;50.930;6.926;2022-07-29T09:54:47;22.30;91.00
1165;DHT22;571;50.930;6.926;2022-07-29T09:57:26;22.50;90.10
1165;DHT22;571;50.930;6.926;2022-07-29T10:00:01;22.60;90.70
1165;DHT22;571;50.930;6.926;2022-07-29T10:02:29;22.70;87.50
1165;DHT22;571;50.930;6.926;2022-07-29T10:04:57;22.70;86.30
1165;DHT22;571;50.930;6.926;2022-07-29T10:07:24;22.90;87.00
1165;DHT22;571;50.930;6.926;2022-07-29T10:09:55;23.00;89.50
1165;DHT22;571;50.930;6.926;2022-07-29T10:12:23;22.90;87.70
1165;DHT22;571;50.930;6.926;2022-07-29T10:14:50;23.00;86.90
1165;DHT22;571;50.930;6.926;2022-07-29T10:17:18;23.10;84.90
1165;DHT22;571;50.930;6.926;2022-07-29T10:19:46;23.20;84.50
1165;DHT22;571;50.930;6.926;2022-07-29T10:22:14;23.20;84.30
1165;DHT22;571;50.930;6.926;2022-07-29T10:24:41;23.40;83.20
1165;DHT22;571;50.930;6.926;2022-07-29T10:27:08;23.40;83.70
1165;DHT22;571;50.930;6.926;2022-07-29T10:29:35;23.40;85.50
1165;DHT22;571;50.930;6.926;2022-07-29T10:32:32;23.40;83.70
1165;DHT22;571;50.930;6.926;2022-07-29T10:35:27;23.60;82.70
1165;DHT22;571;50.930;6.926;2022-07-29T10:38:10;23.70;84.20
1165;DHT22;571;50.930;6.926;2022-07-29T10:40:49;23.90;86.70
1165;DHT22;571;50.930;6.926;2022-07-29T10:43:37;24.10;83.90
1165;DHT22;571;50.930;6.926;2022-07-29T10:46:07;24.40;81.50
1165;DHT22;571;50.930;6.926;2022-07-29T10:48:38;24.50;81.00
1165;DHT22;571;50.930;6.926;2022-07-29T10:51:25;24.60;81.70
1165;DHT22;571;50.930;6.926;2022-07-29T10:53:52;24.80;80.20
1165;DHT22;571;50.930;6.926;2022-07-29T10:56:24;24.90;77.80
1165;DHT22;571;50.930;6.926;2022-07-29T10:59:25;24.90;77.40
1165;DHT22;571;50.930;6.926;2022-07-29T11:01:54;25.00;79.20
1165;DHT22;571;50.930;6.926;2022-07-29T11:07:25;25.30;78.00
1165;DHT22;571;50.930;6.926;2022-07-29T11:10:19;25.60;76.30
1165;DHT22;571;50.930;6.926;2022-07-29T11:12:47;25.80;72.70
1165;DHT22;571;50.930;6.926;2022-07-29T11:15:14;26.10;72.30
1165;DHT22;571;50.930;6.926;2022-07-29T11:18:05;26.40;68.70
1165;DHT22;571;50.930;6.926;2022-07-29T11:20:34;26.70;67.00
1165;DHT22;571;50.930;6.926;2022-07-29T11:23:18;27.20;64.90
1165;DHT22;571;50.930;6.926;2022-07-29T11:25:45;27.30;65.20
1165;DHT22;571;50.930;6.926;2022-07-29T11:28:16;27.20;63.10
1165;DHT22;571;50.930;6.926;2022-07-29T11:30:48;27.60;64.10
1165;DHT22;571;50.930;6.926;2022-07-29T11:33:27;28.10;64.40
1165;DHT22;571;50.930;6.926;2022-07-29T11:36:08;28.60;59.00
1165;DHT22;571;50.930;6.926;2022-07-29T11:38:37;28.60;58.40
1165;DHT22;571;50.930;6.926;2022-07-29T11:41:24;28.50;57.80
1165;DHT22;571;50.930;6.926;2022-07-29T11:43:52;28.30;59.20
1165;DHT22;571;50.930;6.926;2022-07-29T11:46:43;28.50;60.30
1165;DHT22;571;50.930;6.926;2022-07-29T11:49:11;28.40;60.40
1165;DHT22;571;50.930;6.926;2022-07-29T11:51:38;28.50;57.80
1165;DHT22;571;50.930;6.926;2022-07-29T11:54:11;28.80;57.20
1165;DHT22;571;50.930;6.926;2022-07-29T11:56:41;28.70;56.80
1165;DHT22;571;50.930;6.926;2022-07-29T11:59:11;28.50;58.40
1165;DHT22;571;50.930;6.926;2022-07-29T12:01:52;28.20;57.00
1165;DHT22;571;50.930;6.926;2022-07-29T12:04:18;28.10;57.40
1165;DHT22;571;50.930;6.926;2022-07-29T12:06:49;28.30;57.10
1165;DHT22;571;50.930;6.926;2022-07-29T12:09:18;28.30;56.70
1165;DHT22;571;50.930;6.926;2022-07-29T12:11:46;28.30;56.10
1165;DHT22;571;50.930;6.926;2022-07-29T12:14:26;28.30;57.10
1165;DHT22;571;50.930;6.926;2022-07-29T12:16:53;28.60;55.10
1165;DHT22;571;50.930;6.926;2022-07-29T12:19:20;28.50;54.20
1165;DHT22;571;50.930;6.926;2022-07-29T12:21:49;28.10;55.40
1165;DHT22;571;50.930;6.926;2022-07-29T12:24:17;28.30;56.10
1165;DHT22;571;50.930;6.926;2022-07-29T12:26:51;28.00;55.90
1165;DHT22;571;50.930;6.926;2022-07-29T12:29:18;28.40;56.80
1165;DHT22;571;50.930;6.926;2022-07-29T12:31:45;28.80;55.60
1165;DHT22;571;50.930;6.926;2022-07-29T12:34:13;28.90;53.70
1165;DHT22;571;50.930;6.926;2022-07-29T12:36:41;28.90;54.00
1165;DHT22;571;50.930;6.926;2022-07-29T12:39:08;28.90;53.70
1165;DHT22;571;50.930;6.926;2022-07-29T12:41:37;29.10;53.10
1165;DHT22;571;50.930;6.926;2022-07-29T12:44:04;29.20;52.70
1165;DHT22;571;50.930;6.926;2022-07-29T12:46:31;29.10;52.50
1165;DHT22;571;50.930;6.926;2022-07-29T12:48:58;29.40;51.40
1165;DHT22;571;50.930;6.926;2022-07-29T12:51:32;29.50;50.60
1165;DHT22;571;50.930;6.926;2022-07-29T12:54:05;29.50;49.80
1165;DHT22;571;50.930;6.926;2022-07-29T12:56:32;29.90;52.20
1165;DHT22;571;50.930;6.926;2022-07-29T12:59:14;30.50;50.40
1165;DHT22;571;50.930;6.926;2022-07-29T13:01:41;30.90;48.80
1165;DHT22;571;50.930;6.926;2022-07-29T13:04:08;30.40;48.20
1165;DHT22;571;50.930;6.926;2022-07-29T13:06:37;30.30;48.40
1165;DHT22;571;50.930;6.926;2022-07-29T13:09:10;30.50;48.70
1165;DHT22;571;50.930;6.926;2022-07-29T13:11:39;30.70;48.60
1165;DHT22;571;50.930;6.926;2022-07-29T13:14:09;31.30;47.60
1165;DHT22;571;50.930;6.926;2022-07-29T13:16:37;31.40;45.40
1165;DHT22;571;50.930;6.926;2022-07-29T13:19:08;31.20;46.60
1165;DHT22;571;50.930;6.926;2022-07-29T13:21:36;31.90;45.60
1165;DHT22;571;50.930;6.926;2022-07-29T13:24:04;31.70;45.00
1165;DHT22;571;50.930;6.926;2022-07-29T13:26:31;31.90;44.00
1165;DHT22;571;50.930;6.926;2022-07-29T13:28:58;31.70;43.80
1165;DHT22;571;50.930;6.926;2022-07-29T13:31:26;31.90;44.50
1165;DHT22;571;50.930;6.926;2022-07-29T13:33:53;31.90;45.30
1165;DHT22;571;50.930;6.926;2022-07-29T13:36:20;31.90;46.20
1165;DHT22;571;50.930;6.926;2022-07-29T13:38:46;32.10;46.10
1165;DHT22;571;50.930;6.926;2022-07-29T13:41:13;31.70;45.70
1165;DHT22;571;50.930;6.926;2022-07-29T13:43:40;31.50;47.40
1165;DHT22;571;50.930;6.926;2022-07-29T13:46:07;31.80;47.50
1165;DHT22;571;50.930;6.926;2022-07-29T13:48:35;31.80;47.70
1165;DHT22;571;50.930;6.926;2022-07-29T13:51:02;32.20;46.70
1165;DHT22;571;50.930;6.926;2022-07-29T13:53:28;32.60;46.40
1165;DHT22;571;50.930;6.926;2022-07-29T13:55:55;33.40;45.40
1165;DHT22;571;50.930;6.926;2022-07-29T13:58:22;33.10;44.10
1165;DHT22;571;50.930;6.926;2022-07-29T14:00:49;32.80;43.50
1165;DHT22;571;50.930;6.926;2022-07-29T14:03:16;32.70;45.10
1165;DHT22;571;50.930;6.926;2022-07-29T14:05:45;33.00;45.00
1165;DHT22;571;50.930;6.926;2022-07-29T14:08:12;33.20;43.80
1165;DHT22;571;50.930;6.926;2022-07-29T14:10:39;32.90;43.50
1165;DHT22;571;50.930;6.926;2022-07-29T14:13:06;32.90;42.70
1165;DHT22;571;50.930;6.926;2022-07-29T14:15:33;32.10;43.00
1165;DHT22;571;50.930;6.926;2022-07-29T14:18:00;31.90;43.90
1165;DHT22;571;50.930;6.926;2022-07-29T14:20:27;32.20;44.40
1165;DHT22;571;50.930;6.926;2022-07-29T14:22:56;32.90;43.70
1165;DHT22;571;50.930;6.926;2022-07-29T14:25:23;33.10;42.30
1165;DHT22;571;50.930;6.926;2022-07-29T14:27:50;33.20;43.30
1165;DHT22;571;50.930;6.926;2022-07-29T14:30:18;33.10;42.60
1165;DHT22;571;50.930;6.926;2022-07-29T14:32:45;32.80;42.00
1165;DHT22;571;50.930;6.926;2022-07-29T14:35:12;33.00;42.90
1165;DHT22;571;50.930;6.926;2022-07-29T14:37:39;32.70;43.30
1165;DHT22;571;50.930;6.926;2022-07-29T14:40:08;33.00;43.30
1165;DHT22;571;50.930;6.926;2022-07-29T14:42:35;32.90;43.80
1165;DHT22;571;50.930;6.926;2022-07-29T14:45:03;33.20;44.70
1165;DHT22;571;50.930;6.926;2022-07-29T14:47:30;33.50;43.60
1165;DHT22;571;50.930;6.926;2022-07-29T14:49:57;34.10;43.30
1165;DHT22;571;50.930;6.926;2022-07-29T14:52:24;34.60;44.10
1165;DHT22;571;50.930;6.926;2022-07-29T14:54:51;35.20;40.80
1165;DHT22;571;50.930;6.926;2022-07-29T14:57:19;34.50;41.10
1165;DHT22;571;50.930;6.926;2022-07-29T14:59:46;34.30;41.20
1165;DHT22;571;50.930;6.926;2022-07-29T15:02:13;34.40;41.20
1165;DHT22;571;50.930;6.926;2022-07-29T15:04:39;34.40;40.00
1165;DHT22;571;50.930;6.926;2022-07-29T15:07:06;34.40;39.80
1165;DHT22;571;50.930;6.926;2022-07-29T15:09:33;34.10;40.10
1165;DHT22;571;50.930;6.926;2022-07-29T15:12:00;34.00;39.90
1165;DHT22;571;50.930;6.926;2022-07-29T15:14:29;33.90;40.80
1165;DHT22;571;50.930;6.926;2022-07-29T15:16:57;33.30;40.10
1165;DHT22;571;50.930;6.926;2022-07-29T15:19:24;33.80;41.50
1165;DHT22;571;50.930;6.926;2022-07-29T15:21:50;34.30;42.00
1165;DHT22;571;50.930;6.926;2022-07-29T15:24:18;34.60;38.40
1165;DHT22;571;50.930;6.926;2022-07-29T15:26:45;34.60;40.00
1165;DHT22;571;50.930;6.926;2022-07-29T15:29:12;34.90;39.20
1165;DHT22;571;50.930;6.926;2022-07-29T15:31:41;35.00;37.10
1165;DHT22;571;50.930;6.926;2022-07-29T15:34:07;34.50;37.80
1165;DHT22;571;50.930;6.926;2022-07-29T15:36:35;34.70;38.70
1165;DHT22;571;50.930;6.926;2022-07-29T15:39:02;34.70;38.40
1165;DHT22;571;50.930;6.926;2022-07-29T15:41:29;34.90;38.40
1165;DHT22;571;50.930;6.926;2022-07-29T15:43:56;35.10;39.20
1165;DHT22;571;50.930;6.926;2022-07-29T15:46:23;35.20;37.80
1165;DHT22;571;50.930;6.926;2022-07-29T15:49:08;34.70;39.30
1165;DHT22;571;50.930;6.926;2022-07-29T15:51:36;34.30;38.90
1165;DHT22;571;50.930;6.926;2022-07-29T15:54:04;34.20;39.20
1165;DHT22;571;50.930;6.926;2022-07-29T15:56:31;34.50;39.90
1165;DHT22;571;50.930;6.926;2022-07-29T15:58:58;35.10;38.10
1165;DHT22;571;50.930;6.926;2022-07-29T16:01:25;35.10;37.10
1165;DHT22;571;50.930;6.926;2022-07-29T16:03:52;34.20;36.40
1165;DHT22;571;50.930;6.926;2022-07-29T16:06:20;33.70;37.50
1165;DHT22;571;50.930;6.926;2022-07-29T16:08:47;33.50;36.40
1165;DHT22;571;50.930;6.926;2022-07-29T16:11:14;33.10;38.20
1165;DHT22;571;50.930;6.926;2022-07-29T16:13:41;33.40;38.10
1165;DHT22;571;50.930;6.926;2022-07-29T16:16:08;32.70;36.80
1165;DHT22;571;50.930;6.926;2022-07-29T16:18:34;32.40;37.80
1165;DHT22;571;50.930;6.926;2022-07-29T16:21:01;31.90;39.00
1165;DHT22;571;50.930;6.926;2022-07-29T16:23:29;31.30;39.20
1165;DHT22;571;50.930;6.926;2022-07-29T16:25:56;31.50;40.00
1165;DHT22;571;50.930;6.926;2022-07-29T16:28:23;31.90;38.10
1165;DHT22;571;50.930;6.926;2022-07-29T16:30:50;31.90;37.70
1165;DHT22;571;50.930;6.926;2022-07-29T16:33:17;32.50;38.70
1165;DHT22;571;50.930;6.926;2022-07-29T16:35:43;32.60;38.00
1165;DHT22;571;50.930;6.926;2022-07-29T16:38:10;32.70;37.70
1165;DHT22;571;50.930;6.926;2022-07-29T16:40:38;32.70;37.70
1165;DHT22;571;50.930;6.926;2022-07-29T16:43:05;32.00;37.30
1165;DHT22;571;50.930;6.926;2022-07-29T16:45:32;31.70;37.70
1165;DHT22;571;50.930;6.926;2022-07-29T16:48:00;31.70;38.70
1165;DHT22;571;50.930;6.926;2022-07-29T16:50:27;31.90;37.90
1165;DHT22;571;50.930;6.926;2022-07-29T16:52:54;31.60;37.30
1165;DHT22;571;50.930;6.926;2022-07-29T16:55:21;32.00;38.20
1165;DHT22;571;50.930;6.926;2022-07-29T16:57:50;32.40;37.40
1165;DHT22;571;50.930;6.926;2022-07-29T17:00:18;32.40;38.30
1165;DHT22;571;50.930;6.926;2022-07-29T17:02:45;31.80;37.70
1165;DHT22;571;50.930;6.926;2022-07-29T17:05:12;31.30;39.00
1165;DHT22;571;50.930;6.926;2022-07-29T17:07:40;31.00;39.10
1165;DHT22;571;50.930;6.926;2022-07-29T17:10:08;30.70;40.10
1165;DHT22;571;50.930;6.926;2022-07-29T17:12:59;30.20;40.10
1165;DHT22;571;50.930;6.926;2022-07-29T17:15:33;29.70;40.50
1165;DHT22;571;50.930;6.926;2022-07-29T17:18:00;29.60;41.50
1165;DHT22;571;50.930;6.926;2022-07-29T17:20:27;29.50;42.60
1165;DHT22;571;50.930;6.926;2022-07-29T17:22:54;29.10;42.30
1165;DHT22;571;50.930;6.926;2022-07-29T17:25:21;29.00;43.40
1165;DHT22;571;50.930;6.926;2022-07-29T17:27:48;28.70;43.20
1165;DHT22;571;50.930;6.926;2022-07-29T17:30:17;28.60;43.70
1165;DHT22;571;50.930;6.926;2022-07-29T17:32:44;28.30;44.50
1165;DHT22;571;50.930;6.926;2022-07-29T17:35:11;28.30;45.00
1165;DHT22;571;50.930;6.926;2022-07-29T17:37:55;28.10;45.90
1165;DHT22;571;50.930;6.926;2022-07-29T17:40:22;28.00;46.20
1165;DHT22;571;50.930;6.926;2022-07-29T17:42:49;28.10;46.60
1165;DHT22;571;50.930;6.926;2022-07-29T17:45:18;28.10;46.80
1165;DHT22;571;50.930;6.926;2022-07-29T17:47:44;28.10;46.70
1165;DHT22;571;50.930;6.926;2022-07-29T17:50:12;28.10;46.80
1165;DHT22;571;50.930;6.926;2022-07-29T17:52:38;28.10;46.60
1165;DHT22;571;50.930;6.926;2022-07-29T17:55:06;28.10;46.90
1165;DHT22;571;50.930;6.926;2022-07-29T17:57:34;27.80;47.40
1165;DHT22;571;50.930;6.926;2022-07-29T18:00:02;27.70;48.00
1165;DHT22;571;50.930;6.926;2022-07-29T18:02:31;27.70;48.10
1165;DHT22;571;50.930;6.926;2022-07-29T18:04:57;27.70;48.60
1165;DHT22;571;50.930;6.926;2022-07-29T18:07:25;27.70;48.60
1165;DHT22;571;50.930;6.926;2022-07-29T18:09:51;27.70;48.70
1165;DHT22;571;50.930;6.926;2022-07-29T18:12:18;27.70;48.80
1165;DHT22;571;50.930;6.926;2022-07-29T18:14:45;27.50;49.30
1165;DHT22;571;50.930;6.926;2022-07-29T18:17:12;27.50;49.50
1165;DHT22;571;50.930;6.926;2022-07-29T18:19:40;27.30;49.90
1165;DHT22;571;50.930;6.926;2022-07-29T18:22:07;27.20;49.90
1165;DHT22;571;50.930;6.926;2022-07-29T18:24:37;27.20;50.10
1165;DHT22;571;50.930;6.926;2022-07-29T18:27:04;27.00;50.40
1165;DHT22;571;50.930;6.926;2022-07-29T18:29:31;27.10;50.30
1165;DHT22;571;50.930;6.926;2022-07-29T18:31:58;27.10;50.20
1165;DHT22;571;50.930;6.926;2022-07-29T18:34:26;27.00;50.20
1165;DHT22;571;50.930;6.926;2022-07-29T18:36:54;27.00;50.70
1165;DHT22;571;50.930;6.926;2022-07-29T18:39:21;26.80;50.40
1165;DHT22;571;50.930;6.926;2022-07-29T18:41:48;26.80;50.60
1165;DHT22;571;50.930;6.926;2022-07-29T18:44:15;26.80;51.00
1165;DHT22;571;50.930;6.926;2022-07-29T18:46:42;26.80;51.00
1165;DHT22;571;50.930;6.926;2022-07-29T18:49:09;26.50;51.70
1165;DHT22;571;50.930;6.926;2022-07-29T18:51:36;26.30;52.00
1165;DHT22;571;50.930;6.926;2022-07-29T18:54:04;26.30;51.60
1165;DHT22;571;50.930;6.926;2022-07-29T18:56:31;26.40;51.50
1165;DHT22;571;50.930;6.926;2022-07-29T18:58:58;26.30;51.60
1165;DHT22;571;50.930;6.926;2022-07-29T19:01:25;26.10;51.60
1165;DHT22;571;50.930;6.926;2022-07-29T19:03:52;25.90;52.20
1165;DHT22;571;50.930;6.926;2022-07-29T19:06:18;25.70;52.80
1165;DHT22;571;50.930;6.926;2022-07-29T19:08:45;25.70;52.70
1165;DHT22;571;50.930;6.926;2022-07-29T19:11:13;25.60;52.50
1165;DHT22;571;50.930;6.926;2022-07-29T19:13:40;25.50;52.70
1165;DHT22;571;50.930;6.926;2022-07-29T19:16:07;25.40;53.50
1165;DHT22;571;50.930;6.926;2022-07-29T19:18:37;25.20;53.70
1165;DHT22;571;50.930;6.926;2022-07-29T19:21:04;25.30;53.50
1165;DHT22;571;50.930;6.926;2022-07-29T19:23:31;25.20;54.30
1165;DHT22;571;50.930;6.926;2022-07-29T19:25:58;25.10;54.00
1165;DHT22;571;50.930;6.926;2022-07-29T19:28:26;25.10;54.30
1165;DHT22;571;50.930;6.926;2022-07-29T19:30:53;25.00;54.40
1165;DHT22;571;50.930;6.926;2022-07-29T19:33:19;24.90;55.10
1165;DHT22;571;50.930;6.926;2022-07-29T19:35:46;24.80;55.30
1165;DHT22;571;50.930;6.926;2022-07-29T19:38:13;24.80;54.80
1165;DHT22;571;50.930;6.926;2022-07-29T19:40:41;24.80;55.00
1165;DHT22;571;50.930;6.926;2022-07-29T19:43:08;24.70;55.40
1165;DHT22;571;50.930;6.926;2022-07-29T19:45:38;24.60;56.30
1165;DHT22;571;50.930;6.926;2022-07-29T19:48:07;24.50;57.30
1165;DHT22;571;50.930;6.926;2022-07-29T19:50:37;24.50;57.40
1165;DHT22;571;50.930;6.926;2022-07-29T19:53:04;24.40;57.30
1165;DHT22;571;50.930;6.926;2022-07-29T19:55:31;24.30;57.70
1165;DHT22;571;50.930;6.926;2022-07-29T19:57:57;24.20;58.30
1165;DHT22;571;50.930;6.926;2022-07-29T20:00:24;24.10;58.60
1165;DHT22;571;50.930;6.926;2022-07-29T20:02:54;24.00;59.20
1165;DHT22;571;50.930;6.926;2022-07-29T20:05:22;23.90;59.70
1165;DHT22;571;50.930;6.926;2022-07-29T20:07:50;23.80;60.00
1165;DHT22;571;50.930;6.926;2022-07-29T20:10:17;23.80;61.10
1165;DHT22;571;50.930;6.926;2022-07-29T20:12:44;23.70;61.60
1165;DHT22;571;50.930;6.926;2022-07-29T20:15:11;23.60;62.00
1165;DHT22;571;50.930;6.926;2022-07-29T20:17:39;23.50;62.20
1165;DHT22;571;50.930;6.926;2022-07-29T20:20:08;23.50;63.70
1165;DHT22;571;50.930;6.926;2022-07-29T20:22:35;23.40;63.20
1165;DHT22;571;50.930;6.926;2022-07-29T20:25:03;23.40;63.80
1165;DHT22;571;50.930;6.926;2022-07-29T20:27:29;23.40;64.40
1165;DHT22;571;50.930;6.926;2022-07-29T20:29:56;23.30;66.10